sensor_id;sensor_type;location;lat;lon;timestamp;temperature;humidity
4922;DHT22;16625;53.624;10.106;2023-07-02T00:01:55;13.90;99.90
4922;DHT22;16625;53.624;10.106;2023-07-02T00:04:23;13.80;99.90
4922;DHT22;16625;53.624;10.106;2023-07-02T00:06:50;14.40;99.90
4922;DHT22;16625;53.624;10.106;2023-07-02T00:09:17;14.20;99.90
4922;DHT22;16625;53.624;10.106;2023-07-02T00:11:45;14.60;99.90
4922;DHT22;16625;53.624;10.106;2023-07-02T00:14:13;13.70;99.90
4922;DHT22;16625;53.624;10.106;2023-07-02T00:16:42;13.80;99.90
4922;DHT22;16625;53.624;10.106;2023-07-02T00:19:09;13.70;99.90
4922;DHT22;16625;53.624;10.106;2023-07-02T00:21:37;13.60;99.90
4922;DHT22;16625;53.624;10.106;2023-07-02T00:24:05;13.70;99.90
4922;DHT22;16625;53.624;10.106;2023-07-02T00:26:32;13.70;99.90
4922;DHT22;16625;53.624;10.106;2023-07-02T00:28:59;13.70;99.90
4922;DHT22;16625;53.624;10.106;2023-07-02T00:31:26;13.60;99.90
4922;DHT22;16625;53.624;10.106;2023-07-02T00:33:53;13.80;99.90
4922;DHT22;16625;53.624;10.106;2023-07-02T00:36:20;13.80;99.90
4922;DHT22;16625;53.624;10.106;2023-07-02T00:38:49;13.90;99.90
4922;DHT22;16625;53.624;10.106;2023-07-02T00:41:16;14.00;99.90
4922;DHT22;16625;53.624;10.106;2023-07-02T00:43:43;14.00;99.90
4922;DHT22;16625;53.624;10.106;2023-07-02T00:46:13;14.10;99.90
4922;DHT22;16625;53.624;10.106;2023-07-02T00:48:43;14.20;99.90
4922;DHT22;16625;53.624;10.106;2023-07-02T00:51:12;14.20;99.90
4922;DHT22;16625;53.624;10.106;2023-07-02T00:53:40;14.20;99.90
4922;DHT22;16625;53.624;10.106;2023-07-02T00:56:08;14.30;99.90
4922;DHT22;16625;53.624;10.106;2023-07-02T00:58:38;14.50;99.90
4922;DHT22;16625;53.624;10.106;2023-07-02T01:01:05;14.30;99.90
4922;DHT22;16625;53.624;10.106;2023-07-02T01:03:33;15.10;99.90
4922;DHT22;16625;53.624;10.106;2023-07-02T01:06:03;15.10;99.90
4922;DHT22;16625;53.624;10.106;2023-07-02T01:08:30;15.20;99.90
4922;DHT22;16625;53.624;10.106;2023-07-02T01:10:57;15.30;99.90
4922;DHT22;16625;53.624;10.106;2023-07-02T01:13:26;14.50;99.90
4922;DHT22;16625;53.624;10.106;2023-07-02T01:15:53;14.50;99.90
4922;DHT22;16625;53.624;10.106;2023-07-02T01:18:21;14.50;99.90
4922;DHT22;16625;53.624;10.106;2023-07-02T01:20:50;14.50;99.90
4922;DHT22;16625;53.624;10.106;2023-07-02T01:23:19;14.40;99.90
4922;DHT22;16625;53.624;10.106;2023-07-02T01:25:46;14.90;99.90
4922;DHT22;16625;53.624;10.106;2023-07-02T01:28:13;15.10;99.90
4922;DHT22;16625;53.624;10.106;2023-07-02T01:30:40;14.50;99.90
4922;DHT22;16625;53.624;10.106;2023-07-02T01:33:07;15.00;99.90
4922;DHT22;16625;53.624;10.106;2023-07-02T01:35:34;14.30;99.90
4922;DHT22;16625;53.624;10.106;2023-07-02T01:38:02;14.30;99.90
4922;DHT22;16625;53.624;10.106;2023-07-02T01:40:29;14.50;99.90
4922;DHT22;16625;53.624;10.106;2023-07-02T01:42:55;15.10;99.90
4922;DHT22;16625;53.624;10.106;2023-07-02T01:45:22;14.50;99.90
4922;DHT22;16625;53.624;10.106;2023-07-02T01:47:49;14.40;99.90
4922;DHT22;16625;53.624;10.106;2023-07-02T01:50:16;14.40;99.90
4922;DHT22;16625;53.624;10.106;2023-07-02T01:52:43;14.40;99.90
4922;DHT22;16625;53.624;10.106;2023-07-02T01:55:11;14.60;99.90
4922;DHT22;16625;53.624;10.106;2023-07-02T01:57:38;14.80;99.90
4922;DHT22;16625;53.624;10.106;2023-07-02T02:00:06;15.20;99.90
4922;DHT22;16625;53.624;10.106;2023-07-02T02:02:34;14.40;99.90
4922;DHT22;16625;53.624;10.106;2023-07-02T02:05:01;14.50;99.90
4922;DHT22;16625;53.624;10.106;2023-07-02T02:07:28;14.50;99.90
4922;DHT22;16625;53.624;10.106;2023-07-02T02:09:54;14.50;99.90
4922;DHT22;16625;53.624;10.106;2023-07-02T02:12:23;15.20;99.90
4922;DHT22;16625;53.624;10.106;2023-07-02T02:14:49;15.10;99.90
4922;DHT22;16625;53.624;10.106;2023-07-02T02:17:16;14.50;99.90
4922;DHT22;16625;53.624;10.106;2023-07-02T02:19:43;14.90;99.90
4922;DHT22;16625;53.624;10.106;2023-07-02T02:22:10;14.40;99.90
4922;DHT22;16625;53.624;10.106;2023-07-02T02:24:37;15.20;99.90
4922;DHT22;16625;53.624;10.106;2023-07-02T02:27:04;14.40;99.90
4922;DHT22;16625;53.624;10.106;2023-07-02T02:29:32;14.30;99.90
4922;DHT22;16625;53.624;10.106;2023-07-02T02:31:59;15.20;99.90
4922;DHT22;16625;53.624;10.106;2023-07-02T02:34:26;14.20;99.90
4922;DHT22;16625;53.624;10.106;2023-07-02T02:36:54;14.70;99.90
4922;DHT22;16625;53.624;10.106;2023-07-02T02:39:22;15.00;99.90
4922;DHT22;16625;53.624;10.106;2023-07-02T02:41:49;14.20;99.90
4922;DHT22;16625;53.624;10.106;2023-07-02T02:44:15;14.40;99.90
4922;DHT22;16625;53.624;10.106;2023-07-02T02:46:44;14.20;99.90
4922;DHT22;16625;53.624;10.106;2023-07-02T02:49:10;14.10;99.90
4922;DHT22;16625;53.624;10.106;2023-07-02T02:51:37;14.10;99.90
4922;DHT22;16625;53.624;10.106;2023-07-02T02:54:06;14.20;99.90
4922;DHT22;16625;53.624;10.106;2023-07-02T02:56:33;14.90;99.90
4922;DHT22;16625;53.624;10.106;2023-07-02T02:58:59;14.30;99.90
4922;DHT22;16625;53.624;10.106;2023-07-02T03:01:26;14.70;99.90
4922;DHT22;16625;53.624;10.106;2023-07-02T03:03:58;14.00;99.90
4922;DHT22;16625;53.624;10.106;2023-07-02T03:06:25;14.00;99.90
4922;DHT22;16625;53.624;10.106;2023-07-02T03:08:52;14.00;99.90
4922;DHT22;16625;53.624;10.106;2023-07-02T03:11:19;14.80;99.90
4922;DHT22;16625;53.624;10.106;2023-07-02T03:13:46;14.80;99.90
4922;DHT22;16625;53.624;10.106;2023-07-02T03:16:13;14.40;99.90
4922;DHT22;16625;53.624;10.106;2023-07-02T03:18:39;13.90;99.90
4922;DHT22;16625;53.624;10.106;2023-07-02T03:21:08;14.90;99.90
4922;DHT22;16625;53.624;10.106;2023-07-02T03:23:35;14.70;99.90
4922;DHT22;16625;53.624;10.106;2023-07-02T03:26:02;14.40;99.90
4922;DHT22;16625;53.624;10.106;2023-07-02T03:28:29;14.10;99.90
4922;DHT22;16625;53.624;10.106;2023-07-02T03:30:56;14.80;99.90
4922;DHT22;16625;53.624;10.106;2023-07-02T03:33:23;14.50;99.90
4922;DHT22;16625;53.624;10.106;2023-07-02T03:35:50;14.70;99.90
4922;DHT22;16625;53.624;10.106;2023-07-02T03:38:18;14.50;99.90
4922;DHT22;16625;53.624;10.106;2023-07-02T03:40:45;13.80;99.90
4922;DHT22;16625;53.624;10.106;2023-07-02T03:43:12;13.90;99.90
4922;DHT22;16625;53.624;10.106;2023-07-02T03:45:39;13.80;99.90
4922;DHT22;16625;53.624;10.106;2023-07-02T03:48:06;13.90;99.90
4922;DHT22;16625;53.624;10.106;2023-07-02T03:50:32;14.00;99.90
4922;DHT22;16625;53.624;10.106;2023-07-02T03:52:59;14.90;99.90
4922;DHT22;16625;53.624;10.106;2023-07-02T03:55:28;14.40;99.90
4922;DHT22;16625;53.624;10.106;2023-07-02T03:57:54;14.00;99.90
4922;DHT22;16625;53.624;10.106;2023-07-02T04:00:21;14.40;99.90
4922;DHT22;16625;53.624;10.106;2023-07-02T04:02:48;14.80;99.90
4922;DHT22;16625;53.624;10.106;2023-07-02T04:05:15;14.10;99.90
4922;DHT22;16625;53.624;10.106;2023-07-02T04:07:42;15.00;99.90
4922;DHT22;16625;53.624;10.106;2023-07-02T04:10:09;14.10;99.90
4922;DHT22;16625;53.624;10.106;2023-07-02T04:12:38;14.10;99.90
4922;DHT22;16625;53.624;10.106;2023-07-02T04:15:06;15.20;99.90
4922;DHT22;16625;53.624;10.106;2023-07-02T04:17:33;14.20;99.90
4922;DHT22;16625;53.624;10.106;2023-07-02T04:20:01;15.00;99.90
4922;DHT22;16625;53.624;10.106;2023-07-02T04:22:29;14.30;99.90
4922;DHT22;16625;53.624;10.106;2023-07-02T04:24:56;14.30;99.90
4922;DHT22;16625;53.624;10.106;2023-07-02T04:27:23;14.30;99.90
4922;DHT22;16625;53.624;10.106;2023-07-02T04:29:52;14.60;99.90
4922;DHT22;16625;53.624;10.106;2023-07-02T04:32:19;14.40;99.90
4922;DHT22;16625;53.624;10.106;2023-07-02T04:34:46;14.80;99.90
4922;DHT22;16625;53.624;10.106;2023-07-02T04:37:13;14.50;99.90
4922;DHT22;16625;53.624;10.106;2023-07-02T04:39:40;14.90;99.90
4922;DHT22;16625;53.624;10.106;2023-07-02T04:42:07;14.80;99.90
4922;DHT22;16625;53.624;10.106;2023-07-02T04:44:35;14.60;99.90
4922;DHT22;16625;53.624;10.106;2023-07-02T04:47:03;15.30;99.90
4922;DHT22;16625;53.624;10.106;2023-07-02T04:49:30;14.60;99.90
4922;DHT22;16625;53.624;10.106;2023-07-02T04:51:57;14.60;99.90
4922;DHT22;16625;53.624;10.106;2023-07-02T04:54:24;14.70;99.90
4922;DHT22;16625;53.624;10.106;2023-07-02T04:56:51;14.70;99.90
4922;DHT22;16625;53.624;10.106;2023-07-02T04:59:20;14.90;99.90
4922;DHT22;16625;53.624;10.106;2023-07-02T05:01:47;14.80;99.90
4922;DHT22;16625;53.624;10.106;2023-07-02T05:04:15;14.80;99.90
4922;DHT22;16625;53.624;10.106;2023-07-02T05:06:42;14.80;99.90
4922;DHT22;16625;53.624;10.106;2023-07-02T05:09:09;14.90;99.90
4922;DHT22;16625;53.624;10.106;2023-07-02T05:11:36;15.00;99.90
4922;DHT22;16625;53.624;10.106;2023-07-02T05:14:03;15.00;99.90
4922;DHT22;16625;53.624;10.106;2023-07-02T05:16:30;15.00;99.90
4922;DHT22;16625;53.624;10.106;2023-07-02T05:18:56;15.10;74.90
4922;DHT22;16625;53.624;10.106;2023-07-02T05:21:25;15.90;39.50
4922;DHT22;16625;53.624;10.106;2023-07-02T05:23:51;15.20;42.80
4922;DHT22;16625;53.624;10.106;2023-07-02T05:26:18;15.20;2.40
4922;DHT22;16625;53.624;10.106;2023-07-02T05:28:45;15.50;1.00
4922;DHT22;16625;53.624;10.106;2023-07-02T05:31:12;15.20;1.00
4922;DHT22;16625;53.624;10.106;2023-07-02T05:33:39;15.30;1.00
4922;DHT22;16625;53.624;10.106;2023-07-02T05:36:05;15.40;1.00
4922;DHT22;16625;53.624;10.106;2023-07-02T05:38:34;15.30;99.90
4922;DHT22;16625;53.624;10.106;2023-07-02T05:41:02;15.80;97.60
4922;DHT22;16625;53.624;10.106;2023-07-02T05:43:28;15.60;3.40
4922;DHT22;16625;53.624;10.106;2023-07-02T05:45:58;15.40;4.70
4922;DHT22;16625;53.624;10.106;2023-07-02T05:48:25;15.60;46.20
4922;DHT22;16625;53.624;10.106;2023-07-02T05:50:52;15.50;1.00
4922;DHT22;16625;53.624;10.106;2023-07-02T05:53:19;15.70;99.90
4922;DHT22;16625;53.624;10.106;2023-07-02T05:55:48;15.60;99.90
4922;DHT22;16625;53.624;10.106;2023-07-02T05:58:14;15.60;1.00
4922;DHT22;16625;53.624;10.106;2023-07-02T06:00:41;15.60;1.00
4922;DHT22;16625;53.624;10.106;2023-07-02T06:03:14;16.10;99.90
4922;DHT22;16625;53.624;10.106;2023-07-02T06:05:46;15.70;52.00
4922;DHT22;16625;53.624;10.106;2023-07-02T06:08:13;15.70;1.00
4922;DHT22;16625;53.624;10.106;2023-07-02T06:10:39;16.40;1.00
4922;DHT22;16625;53.624;10.106;2023-07-02T06:13:08;16.30;50.10
4922;DHT22;16625;53.624;10.106;2023-07-02T06:15:34;16.40;1.00
4922;DHT22;16625;53.624;10.106;2023-07-02T06:18:01;16.10;99.90
4922;DHT22;16625;53.624;10.106;2023-07-02T06:20:28;16.10;1.00
4922;DHT22;16625;53.624;10.106;2023-07-02T06:22:55;16.40;99.90
4922;DHT22;16625;53.624;10.106;2023-07-02T06:25:22;16.30;1.00
4922;DHT22;16625;53.624;10.106;2023-07-02T06:27:49;16.40;1.00
4922;DHT22;16625;53.624;10.106;2023-07-02T06:30:17;16.90;28.10
4922;DHT22;16625;53.624;10.106;2023-07-02T06:32:44;16.50;1.00
4922;DHT22;16625;53.624;10.106;2023-07-02T06:35:11;16.80;99.90
4922;DHT22;16625;53.624;10.106;2023-07-02T06:37:37;16.70;99.90
4922;DHT22;16625;53.624;10.106;2023-07-02T06:40:05;16.80;1.00
4922;DHT22;16625;53.624;10.106;2023-07-02T06:42:32;16.90;99.90
4922;DHT22;16625;53.624;10.106;2023-07-02T06:45:01;17.00;1.00
4922;DHT22;16625;53.624;10.106;2023-07-02T06:47:29;17.10;99.90
4922;DHT22;16625;53.624;10.106;2023-07-02T06:49:56;17.10;56.30
4922;DHT22;16625;53.624;10.106;2023-07-02T06:52:23;17.30;1.00
4922;DHT22;16625;53.624;10.106;2023-07-02T06:54:50;17.20;99.90
4922;DHT22;16625;53.624;10.106;2023-07-02T06:57:17;17.40;99.90
4922;DHT22;16625;53.624;10.106;2023-07-02T06:59:44;17.60;1.00
4922;DHT22;16625;53.624;10.106;2023-07-02T07:02:11;17.70;99.90
4922;DHT22;16625;53.624;10.106;2023-07-02T07:04:40;17.80;99.90
4922;DHT22;16625;53.624;10.106;2023-07-02T07:07:07;17.90;99.90
4922;DHT22;16625;53.624;10.106;2023-07-02T07:09:34;17.80;99.90
4922;DHT22;16625;53.624;10.106;2023-07-02T07:12:00;17.90;99.90
4922;DHT22;16625;53.624;10.106;2023-07-02T07:14:28;17.90;99.90
4922;DHT22;16625;53.624;10.106;2023-07-02T07:16:55;17.90;99.90
4922;DHT22;16625;53.624;10.106;2023-07-02T07:19:22;18.00;99.90
4922;DHT22;16625;53.624;10.106;2023-07-02T07:21:50;18.10;99.90
4922;DHT22;16625;53.624;10.106;2023-07-02T07:24:17;18.00;1.00
4922;DHT22;16625;53.624;10.106;2023-07-02T07:26:44;17.80;1.00
4922;DHT22;16625;53.624;10.106;2023-07-02T07:29:11;17.70;1.00
4922;DHT22;16625;53.624;10.106;2023-07-02T07:31:39;17.40;99.90
4922;DHT22;16625;53.624;10.106;2023-07-02T07:34:06;17.20;99.90
4922;DHT22;16625;53.624;10.106;2023-07-02T07:36:33;17.10;99.90
4922;DHT22;16625;53.624;10.106;2023-07-02T07:39:01;17.20;99.90
4922;DHT22;16625;53.624;10.106;2023-07-02T07:41:29;17.30;1.00
4922;DHT22;16625;53.624;10.106;2023-07-02T07:43:55;17.30;1.00
4922;DHT22;16625;53.624;10.106;2023-07-02T07:46:23;17.60;99.90
4922;DHT22;16625;53.624;10.106;2023-07-02T07:48:50;17.70;99.90
4922;DHT22;16625;53.624;10.106;2023-07-02T07:51:17;17.70;99.90
4922;DHT22;16625;53.624;10.106;2023-07-02T07:53:44;18.20;1.00
4922;DHT22;16625;53.624;10.106;2023-07-02T07:56:13;17.80;99.90
4922;DHT22;16625;53.624;10.106;2023-07-02T07:58:40;17.70;93.40
4922;DHT22;16625;53.624;10.106;2023-07-02T08:01:06;17.80;99.90
4922;DHT22;16625;53.624;10.106;2023-07-02T08:03:33;17.90;1.00
4922;DHT22;16625;53.624;10.106;2023-07-02T08:06:00;18.00;99.90
4922;DHT22;16625;53.624;10.106;2023-07-02T08:08:27;18.00;99.90
4922;DHT22;16625;53.624;10.106;2023-07-02T08:10:54;17.90;99.90
4922;DHT22;16625;53.624;10.106;2023-07-02T08:13:22;18.20;99.90
4922;DHT22;16625;53.624;10.106;2023-07-02T08:15:49;18.60;99.90
4922;DHT22;16625;53.624;10.106;2023-07-02T08:18:15;18.80;25.00
4922;DHT22;16625;53.624;10.106;2023-07-02T08:20:42;18.80;1.00
4922;DHT22;16625;53.624;10.106;2023-07-02T08:23:09;19.10;1.00
4922;DHT22;16625;53.624;10.106;2023-07-02T08:25:37;19.50;9.00
4922;DHT22;16625;53.624;10.106;2023-07-02T08:28:04;19.50;1.00
4922;DHT22;16625;53.624;10.106;2023-07-02T08:30:32;19.30;1.00
4922;DHT22;16625;53.624;10.106;2023-07-02T08:32:59;19.50;1.00
4922;DHT22;16625;53.624;10.106;2023-07-02T08:35:26;18.60;1.00
4922;DHT22;16625;53.624;10.106;2023-07-02T08:37:52;18.40;1.00
4922;DHT22;16625;53.624;10.106;2023-07-02T08:40:19;18.20;1.00
4922;DHT22;16625;53.624;10.106;2023-07-02T08:42:47;18.00;1.00
4922;DHT22;16625;53.624;10.106;2023-07-02T08:45:14;17.90;1.00
4922;DHT22;16625;53.624;10.106;2023-07-02T08:47:44;17.90;1.00
4922;DHT22;16625;53.624;10.106;2023-07-02T08:50:12;17.70;1.00
4922;DHT22;16625;53.624;10.106;2023-07-02T08:52:39;18.00;1.00
4922;DHT22;16625;53.624;10.106;2023-07-02T08:55:06;18.20;1.00
4922;DHT22;16625;53.624;10.106;2023-07-02T08:57:34;18.40;1.00
4922;DHT22;16625;53.624;10.106;2023-07-02T09:00:05;18.60;1.00
4922;DHT22;16625;53.624;10.106;2023-07-02T09:02:34;18.90;1.00
4922;DHT22;16625;53.624;10.106;2023-07-02T09:05:03;19.10;1.00
4922;DHT22;16625;53.624;10.106;2023-07-02T09:07:30;19.30;1.00
4922;DHT22;16625;53.624;10.106;2023-07-02T09:09:57;19.60;1.00
4922;DHT22;16625;53.624;10.106;2023-07-02T09:12:28;19.90;1.00
4922;DHT22;16625;53.624;10.106;2023-07-02T09:14:57;20.10;1.00
4922;DHT22;16625;53.624;10.106;2023-07-02T09:17:28;20.00;1.00
4922;DHT22;16625;53.624;10.106;2023-07-02T09:19:57;19.70;1.00
4922;DHT22;16625;53.624;10.106;2023-07-02T09:22:27;19.50;99.90
4922;DHT22;16625;53.624;10.106;2023-07-02T09:24:55;19.10;99.90
4922;DHT22;16625;53.624;10.106;2023-07-02T09:27:33;18.80;99.90
4922;DHT22;16625;53.624;10.106;2023-07-02T09:30:06;17.80;99.90
4922;DHT22;16625;53.624;10.106;2023-07-02T09:32:33;18.00;1.00
4922;DHT22;16625;53.624;10.106;2023-07-02T09:35:00;17.80;1.00
4922;DHT22;16625;53.624;10.106;2023-07-02T09:37:29;17.20;99.90
4922;DHT22;16625;53.624;10.106;2023-07-02T09:39:56;17.30;1.00
4922;DHT22;16625;53.624;10.106;2023-07-02T09:42:25;16.30;1.00
4922;DHT22;16625;53.624;10.106;2023-07-02T09:44:52;16.70;1.00
4922;DHT22;16625;53.624;10.106;2023-07-02T09:47:22;16.40;99.90
4922;DHT22;16625;53.624;10.106;2023-07-02T09:49:53;17.30;99.90
4922;DHT22;16625;53.624;10.106;2023-07-02T09:52:20;17.50;99.90
4922;DHT22;16625;53.624;10.106;2023-07-02T09:54:49;17.40;99.90
4922;DHT22;16625;53.624;10.106;2023-07-02T09:57:16;17.60;99.90
4922;DHT22;16625;53.624;10.106;2023-07-02T09:59:43;17.80;99.90
4922;DHT22;16625;53.624;10.106;2023-07-02T10:02:10;18.10;96.60
4922;DHT22;16625;53.624;10.106;2023-07-02T10:04:41;18.30;99.90
4922;DHT22;16625;53.624;10.106;2023-07-02T10:07:09;18.60;99.90
4922;DHT22;16625;53.624;10.106;2023-07-02T10:09:37;18.50;1.00
4922;DHT22;16625;53.624;10.106;2023-07-02T10:12:19;18.60;1.00
4922;DHT22;16625;53.624;10.106;2023-07-02T10:14:48;18.70;1.00
4922;DHT22;16625;53.624;10.106;2023-07-02T10:17:26;19.00;1.00
4922;DHT22;16625;53.624;10.106;2023-07-02T10:19:54;19.40;1.00
4922;DHT22;16625;53.624;10.106;2023-07-02T10:22:22;19.60;1.00
4922;DHT22;16625;53.624;10.106;2023-07-02T10:24:55;19.80;1.00
4922;DHT22;16625;53.624;10.106;2023-07-02T10:27:37;20.10;1.00
4922;DHT22;16625;53.624;10.106;2023-07-02T10:30:05;19.90;1.00
4922;DHT22;16625;53.624;10.106;2023-07-02T10:32:33;19.50;99.90
4922;DHT22;16625;53.624;10.106;2023-07-02T10:35:00;19.20;99.90
4922;DHT22;16625;53.624;10.106;2023-07-02T10:37:35;19.20;99.90
4922;DHT22;16625;53.624;10.106;2023-07-02T10:40:04;19.20;99.90
4922;DHT22;16625;53.624;10.106;2023-07-02T10:42:32;19.60;99.90
4922;DHT22;16625;53.624;10.106;2023-07-02T10:45:01;19.90;99.90
4922;DHT22;16625;53.624;10.106;2023-07-02T10:47:28;20.10;99.90
4922;DHT22;16625;53.624;10.106;2023-07-02T10:49:56;20.00;99.90
4922;DHT22;16625;53.624;10.106;2023-07-02T10:52:23;19.80;99.90
4922;DHT22;16625;53.624;10.106;2023-07-02T10:54:50;19.90;99.90
4922;DHT22;16625;53.624;10.106;2023-07-02T10:57:18;19.90;99.90
4922;DHT22;16625;53.624;10.106;2023-07-02T10:59:46;20.00;99.90
4922;DHT22;16625;53.624;10.106;2023-07-02T11:02:14;19.80;99.90
4922;DHT22;16625;53.624;10.106;2023-07-02T11:04:41;19.80;99.90
4922;DHT22;16625;53.624;10.106;2023-07-02T11:07:10;19.60;99.90
4922;DHT22;16625;53.624;10.106;2023-07-02T11:09:36;19.30;99.90
4922;DHT22;16625;53.624;10.106;2023-07-02T11:12:04;19.20;99.90
4922;DHT22;16625;53.624;10.106;2023-07-02T11:14:32;19.50;99.90
4922;DHT22;16625;53.624;10.106;2023-07-02T11:17:01;19.60;99.90
4922;DHT22;16625;53.624;10.106;2023-07-02T11:19:31;19.70;99.90
4922;DHT22;16625;53.624;10.106;2023-07-02T11:21:59;19.90;99.90
4922;DHT22;16625;53.624;10.106;2023-07-02T11:24:30;20.10;99.90
4922;DHT22;16625;53.624;10.106;2023-07-02T11:26:58;20.20;99.90
4922;DHT22;16625;53.624;10.106;2023-07-02T11:29:25;20.30;99.90
4922;DHT22;16625;53.624;10.106;2023-07-02T11:31:52;20.30;99.90
4922;DHT22;16625;53.624;10.106;2023-07-02T11:34:21;20.10;99.90
4922;DHT22;16625;53.624;10.106;2023-07-02T11:36:50;19.80;99.90
4922;DHT22;16625;53.624;10.106;2023-07-02T11:39:19;19.00;99.90
4922;DHT22;16625;53.624;10.106;2023-07-02T11:41:47;19.10;99.90
4922;DHT22;16625;53.624;10.106;2023-07-02T11:44:15;19.20;99.90
4922;DHT22;16625;53.624;10.106;2023-07-02T11:46:42;19.40;99.90
4922;DHT22;16625;53.624;10.106;2023-07-02T11:49:09;19.80;99.90
4922;DHT22;16625;53.624;10.106;2023-07-02T11:51:37;20.30;99.90
4922;DHT22;16625;53.624;10.106;2023-07-02T11:54:06;20.40;99.90
4922;DHT22;16625;53.624;10.106;2023-07-02T11:56:33;20.30;99.90
4922;DHT22;16625;53.624;10.106;2023-07-02T11:59:00;20.10;99.90
4922;DHT22;16625;53.624;10.106;2023-07-02T12:01:27;19.60;99.90
4922;DHT22;16625;53.624;10.106;2023-07-02T12:03:54;19.40;99.90
4922;DHT22;16625;53.624;10.106;2023-07-02T12:06:20;19.20;99.90
4922;DHT22;16625;53.624;10.106;2023-07-02T12:08:47;18.90;99.90
4922;DHT22;16625;53.624;10.106;2023-07-02T12:11:18;18.30;99.90
4922;DHT22;16625;53.624;10.106;2023-07-02T12:13:45;17.90;1.00
4922;DHT22;16625;53.624;10.106;2023-07-02T12:16:12;17.00;99.90
4922;DHT22;16625;53.624;10.106;2023-07-02T12:18:39;16.50;99.90
4922;DHT22;16625;53.624;10.106;2023-07-02T12:21:06;16.00;99.90
4922;DHT22;16625;53.624;10.106;2023-07-02T12:23:32;16.50;1.00
4922;DHT22;16625;53.624;10.106;2023-07-02T12:26:00;15.80;12.90
4922;DHT22;16625;53.624;10.106;2023-07-02T12:28:28;16.40;99.90
4922;DHT22;16625;53.624;10.106;2023-07-02T12:30:55;16.10;99.90
4922;DHT22;16625;53.624;10.106;2023-07-02T12:33:21;16.20;99.90
4922;DHT22;16625;53.624;10.106;2023-07-02T12:35:48;16.50;99.90
4922;DHT22;16625;53.624;10.106;2023-07-02T12:38:15;17.30;99.90
4922;DHT22;16625;53.624;10.106;2023-07-02T12:40:42;17.60;1.00
4922;DHT22;16625;53.624;10.106;2023-07-02T12:43:09;18.50;1.00
4922;DHT22;16625;53.624;10.106;2023-07-02T12:45:37;19.00;99.90
4922;DHT22;16625;53.624;10.106;2023-07-02T12:48:04;18.90;99.90
4922;DHT22;16625;53.624;10.106;2023-07-02T12:50:31;19.00;1.00
4922;DHT22;16625;53.624;10.106;2023-07-02T12:52:58;19.50;99.90
4922;DHT22;16625;53.624;10.106;2023-07-02T12:55:25;19.90;1.00
4922;DHT22;16625;53.624;10.106;2023-07-02T12:57:52;20.10;1.00
4922;DHT22;16625;53.624;10.106;2023-07-02T13:00:19;20.10;1.00
4922;DHT22;16625;53.624;10.106;2023-07-02T13:02:47;20.20;1.00
4922;DHT22;16625;53.624;10.106;2023-07-02T13:05:14;20.20;1.00
4922;DHT22;16625;53.624;10.106;2023-07-02T13:07:41;20.40;99.90
4922;DHT22;16625;53.624;10.106;2023-07-02T13:10:08;20.40;99.90
4922;DHT22;16625;53.624;10.106;2023-07-02T13:12:35;20.40;99.90
4922;DHT22;16625;53.624;10.106;2023-07-02T13:15:03;20.60;99.90
4922;DHT22;16625;53.624;10.106;2023-07-02T13:17:30;20.70;99.90
4922;DHT22;16625;53.624;10.106;2023-07-02T13:19:58;20.80;99.90
4922;DHT22;16625;53.624;10.106;2023-07-02T13:22:25;21.00;99.90
4922;DHT22;16625;53.624;10.106;2023-07-02T13:24:52;21.00;99.90
4922;DHT22;16625;53.624;10.106;2023-07-02T13:27:18;21.10;99.90
4922;DHT22;16625;53.624;10.106;2023-07-02T13:29:45;21.30;99.90
4922;DHT22;16625;53.624;10.106;2023-07-02T13:32:12;21.40;99.90
4922;DHT22;16625;53.624;10.106;2023-07-02T13:34:39;21.50;99.90
4922;DHT22;16625;53.624;10.106;2023-07-02T13:37:08;21.60;99.90
4922;DHT22;16625;53.624;10.106;2023-07-02T13:39:35;21.50;99.90
4922;DHT22;16625;53.624;10.106;2023-07-02T13:42:02;21.60;99.90
4922;DHT22;16625;53.624;10.106;2023-07-02T13:44:29;21.70;99.90
4922;DHT22;16625;53.624;10.106;2023-07-02T13:46:56;21.80;99.90
4922;DHT22;16625;53.624;10.106;2023-07-02T13:49:23;21.80;99.90
4922;DHT22;16625;53.624;10.106;2023-07-02T13:51:50;21.40;99.90
4922;DHT22;16625;53.624;10.106;2023-07-02T13:54:18;21.40;99.90
4922;DHT22;16625;53.624;10.106;2023-07-02T13:56:45;21.70;99.90
4922;DHT22;16625;53.624;10.106;2023-07-02T13:59:14;22.00;99.90
4922;DHT22;16625;53.624;10.106;2023-07-02T14:01:42;22.20;99.90
4922;DHT22;16625;53.624;10.106;2023-07-02T14:04:09;22.20;99.90
4922;DHT22;16625;53.624;10.106;2023-07-02T14:06:36;22.30;99.90
4922;DHT22;16625;53.624;10.106;2023-07-02T14:09:04;22.30;99.90
4922;DHT22;16625;53.624;10.106;2023-07-02T14:11:32;22.20;99.90
4922;DHT22;16625;53.624;10.106;2023-07-02T14:13:59;21.70;99.90
4922;DHT22;16625;53.624;10.106;2023-07-02T14:16:27;21.50;99.90
4922;DHT22;16625;53.624;10.106;2023-07-02T14:18:54;21.30;99.90
4922;DHT22;16625;53.624;10.106;2023-07-02T14:21:21;21.20;99.90
4922;DHT22;16625;53.624;10.106;2023-07-02T14:23:47;21.50;99.90
4922;DHT22;16625;53.624;10.106;2023-07-02T14:26:14;21.80;99.90
4922;DHT22;16625;53.624;10.106;2023-07-02T14:28:41;22.10;99.90
4922;DHT22;16625;53.624;10.106;2023-07-02T14:31:08;22.00;99.90
4922;DHT22;16625;53.624;10.106;2023-07-02T14:33:37;21.50;99.90
4922;DHT22;16625;53.624;10.106;2023-07-02T14:36:05;21.10;99.90
4922;DHT22;16625;53.624;10.106;2023-07-02T14:38:33;20.70;99.90
4922;DHT22;16625;53.624;10.106;2023-07-02T14:41:02;20.50;99.90
4922;DHT22;16625;53.624;10.106;2023-07-02T14:43:30;20.60;99.90
4922;DHT22;16625;53.624;10.106;2023-07-02T14:45:58;20.70;99.90
4922;DHT22;16625;53.624;10.106;2023-07-02T14:48:26;20.80;99.90
4922;DHT22;16625;53.624;10.106;2023-07-02T14:50:56;21.10;99.90
4922;DHT22;16625;53.624;10.106;2023-07-02T14:53:24;21.10;99.90
4922;DHT22;16625;53.624;10.106;2023-07-02T14:55:54;21.10;99.90
4922;DHT22;16625;53.624;10.106;2023-07-02T14:58:21;20.90;99.90
4922;DHT22;16625;53.624;10.106;2023-07-02T15:00:49;20.60;99.90
4922;DHT22;16625;53.624;10.106;2023-07-02T15:03:17;20.50;99.90
4922;DHT22;16625;53.624;10.106;2023-07-02T15:05:45;20.50;99.90
4922;DHT22;16625;53.624;10.106;2023-07-02T15:08:14;20.30;99.90
4922;DHT22;16625;53.624;10.106;2023-07-02T15:10:42;20.30;99.90
4922;DHT22;16625;53.624;10.106;2023-07-02T15:13:09;20.40;99.90
4922;DHT22;16625;53.624;10.106;2023-07-02T15:15:36;20.70;99.90
4922;DHT22;16625;53.624;10.106;2023-07-02T15:18:05;20.90;99.90
4922;DHT22;16625;53.624;10.106;2023-07-02T15:20:32;21.00;99.90
4922;DHT22;16625;53.624;10.106;2023-07-02T15:22:59;20.80;99.90
4922;DHT22;16625;53.624;10.106;2023-07-02T15:25:31;20.70;99.90
4922;DHT22;16625;53.624;10.106;2023-07-02T15:27:59;20.40;99.90
4922;DHT22;16625;53.624;10.106;2023-07-02T15:30:26;20.50;99.90
4922;DHT22;16625;53.624;10.106;2023-07-02T15:32:53;20.40;99.90
4922;DHT22;16625;53.624;10.106;2023-07-02T15:35:19;20.40;99.90
4922;DHT22;16625;53.624;10.106;2023-07-02T15:37:46;20.20;99.90